Het weer levert geen direct gevaar op.    Er zijn geen waarschuwingen afgegeven.


Onweer radar Meer informatie blitzortung!


Regen radar Meer informatie rain snow radar


Bezoek onze andere website:

Template documentation
and downloads

And another site

Forum Leuven-template

EUWEATHER.EU

Verwachtingen Meteociel


U vindt ons ook hier:

Het Weer Aktueel

UK Metoffice

European Weather Network

WeatherCloud

Weather Underground

Benelux Weer Netwerk

AWEKAS

WeatherlinkIP

HAMweather, WeatherForYou, PWS Weather

Wetterpage 24

Wetter.com



METAR rapporten vliegvelden

   
EBAW - Antwerp
Gewijzigd: 17-06-2019 17:20
Helder  
Helder  
   Wind: WZW 13 km/h
Wind: WZW 13 km/h
Temperatuur: 25°C
Dauwpunt: 12°C
Vochtigheid: 44%
Barometer: 1018 hPa
Zicht: meer dan 10 km
Bewolking: Helder
EBAW 171520Z 25007KT 210V280 CAVOK 25/12 Q1018 NOSIG
EBLG - Li├Ęge
Gewijzigd: 17-06-2019 17:20
Helder  
Helder  
   Wind: NNW 5.6 km/h
Wind: NNW 5.6 km/h
Temperatuur: 24°C
Dauwpunt: 12°C
Vochtigheid: 47%
Barometer: 1018 hPa
Zicht: meer dan 10 km
Bewolking: Helder
EBLG 171520Z 34003KT 310V020 CAVOK 24/12 Q1018 NOSIG
EBCV - Mons/Bergen
Gewijzigd: 17-06-2019 17:25
Licht bewolkt  
Licht bewolkt  
   Wind: Westen 9.3 km/h
Wind: Westen 9.3 km/h
Temperatuur: 24°C
Dauwpunt: 15°C
Vochtigheid: 57%
Barometer: 1018 hPa
Bewolking: Licht bewolkt
Zicht: meer dan 10 km
Bewolking: Licht bewolkt 3600 ft
EBCV 171525Z AUTO 27005KT 9999 FEW036/// 24/15 Q1018 BLU
EHBK - Maastricht
Gewijzigd: 17-06-2019 17:25
Gedeeltelijk bewolkt  
Gedeeltelijk bewolkt  
   Wind: varieert 5.6 km/h
Wind: varieert 5.6 km/h
Temperatuur: 26°C
Dauwpunt: 12°C
Vochtigheid: 42%
Barometer: 1018 hPa
Bewolking: Gedeeltelijk bewolkt
Zicht: meer dan 10 km
Bewolking: Gedeeltelijk bewolkt
EHBK 171525Z AUTO VRB03KT 9999 NSC 26/12 Q1018 NOSIG
ELLX - Luxemburg
Gewijzigd: 17-06-2019 17:20
Helder  
Helder  
   Wind: OZO 9.3 km/h
Wind: OZO 9.3 km/h
Temperatuur: 24°C
Dauwpunt: 10°C
Vochtigheid: 41%
Barometer: 1018 hPa
Zicht: meer dan 10 km
Bewolking: Helder
ELLX 171520Z 11005KT 030V190 CAVOK 24/10 Q1018 NOSIG
EBOS - Oostende
Gewijzigd: 17-06-2019 17:20
Helder  
Helder  
   Wind: NW 13 km/h
Wind: NW 13 km/h
Temperatuur: 19°C
Dauwpunt: 12°C
Vochtigheid: 64%
Barometer: 1018 hPa
Zicht: meer dan 10 km
Bewolking: Helder
EBOS 171520Z 32007KT CAVOK 19/12 Q1018 NOSIG

Script ontwikkeld door  Saratoga-weather.org Aangepast voor de template door  Weerstation Leuven

Apparatuur in gebruik:

Weerstation
Davis VP2

Weerprogramma
Meteobridge

Weercomputer
Asus WL -330N3G

Webleverancier
Onecom

Davis VP2

Meteobridge

Asus WL -330N3G

Onecom